createdAt,value
2018-06-14T00:01:08.103Z,1.70
2018-06-14T00:03:38.198Z,1.87
2018-06-14T00:06:08.354Z,1.90
2018-06-14T00:08:38.117Z,1.70
2018-06-14T00:11:07.867Z,1.40
2018-06-14T00:13:37.959Z,1.53
2018-06-14T00:16:07.842Z,1.90
2018-06-14T00:18:37.601Z,1.93
2018-06-14T00:21:07.929Z,1.50
2018-06-14T00:23:37.701Z,1.63
2018-06-14T00:26:07.574Z,1.83
2018-06-14T00:28:37.353Z,1.47
2018-06-14T00:31:07.099Z,1.80
2018-06-14T00:33:36.889Z,1.57
2018-06-14T00:36:06.636Z,1.70
2018-06-14T00:38:36.849Z,1.70
2018-06-14T00:41:06.594Z,1.80
2018-06-14T00:43:36.381Z,1.60
2018-06-14T00:46:06.373Z,1.70
2018-06-14T00:48:36.147Z,1.63
2018-06-14T00:51:05.963Z,1.80
2018-06-14T00:53:35.703Z,2.00
2018-06-14T00:56:05.554Z,1.80
2018-06-14T00:58:35.303Z,1.60
2018-06-14T01:01:05.111Z,1.80
2018-06-14T01:03:34.902Z,1.43
2018-06-14T01:06:04.643Z,1.80
2018-06-14T01:08:34.416Z,1.60
2018-06-14T01:11:04.169Z,1.60
2018-06-14T01:13:33.954Z,1.37
2018-06-14T01:16:03.699Z,1.70
2018-06-14T01:18:33.536Z,1.80
2018-06-14T01:21:03.289Z,1.70
2018-06-14T01:23:33.029Z,1.70
2018-06-14T01:26:02.897Z,1.70
2018-06-14T01:28:32.636Z,1.93
2018-06-14T01:31:02.443Z,1.53
2018-06-14T01:33:32.193Z,1.53
2018-06-14T01:36:01.938Z,1.90
2018-06-14T01:38:31.761Z,1.83
2018-06-14T01:41:01.606Z,1.90
2018-06-14T01:43:31.401Z,1.90
2018-06-14T01:46:01.164Z,2.33
2018-06-14T01:48:31.119Z,2.10
2018-06-14T01:51:00.921Z,2.33
2018-06-14T01:53:30.665Z,2.30
2018-06-14T01:56:00.506Z,1.93
2018-06-14T01:58:30.743Z,2.20
2018-06-14T02:01:01.628Z,2.10
2018-06-14T02:03:31.511Z,2.40
2018-06-14T02:06:01.319Z,1.97
2018-06-14T02:08:31.094Z,1.60
2018-06-14T02:11:00.982Z,1.27
2018-06-14T02:13:30.773Z,1.90
2018-06-14T02:16:00.656Z,1.60
2018-06-14T02:18:30.473Z,2.20
2018-06-14T02:21:00.222Z,1.83
2018-06-14T02:23:30.390Z,2.20
2018-06-14T02:26:00.126Z,1.90
2018-06-14T02:28:30.029Z,2.40
2018-06-14T02:30:59.915Z,2.20
2018-06-14T02:33:29.669Z,2.17
2018-06-14T02:35:59.601Z,1.90
2018-06-14T02:38:29.369Z,2.27
2018-06-14T02:40:59.301Z,1.97
2018-06-14T02:43:29.093Z,1.67
2018-06-14T02:45:58.920Z,2.40
2018-06-14T02:48:28.725Z,1.83
2018-06-14T02:50:58.542Z,2.27
2018-06-14T02:53:28.350Z,2.07
2018-06-14T02:55:58.106Z,2.30
2018-06-14T02:58:28.279Z,2.30
2018-06-14T03:00:58.022Z,2.40
2018-06-14T03:03:27.949Z,2.10
2018-06-14T03:05:57.852Z,2.00
2018-06-14T03:08:28.020Z,2.40
2018-06-14T03:10:57.841Z,2.30
2018-06-14T03:13:27.601Z,2.33
2018-06-14T03:15:57.405Z,1.93
2018-06-14T03:18:27.170Z,2.43
2018-06-14T03:20:56.933Z,2.10
2018-06-14T03:23:26.817Z,2.60
2018-06-14T03:25:56.741Z,2.20
2018-06-14T03:28:26.556Z,2.33
2018-06-14T03:30:56.470Z,2.50
2018-06-14T03:33:26.266Z,2.07
2018-06-14T03:35:56.057Z,2.10
2018-06-14T03:38:26.823Z,2.37
2018-06-14T03:40:56.681Z,2.60
2018-06-14T03:43:26.490Z,2.17
2018-06-14T03:45:56.396Z,2.60
2018-06-14T03:48:26.553Z,2.13
2018-06-14T03:50:56.339Z,2.63
2018-06-14T03:53:26.449Z,2.43
2018-06-14T03:55:56.272Z,2.60
2018-06-14T03:58:26.094Z,2.97
2018-06-14T04:00:56.123Z,2.63
2018-06-14T04:03:25.893Z,2.87
2018-06-14T04:05:55.686Z,2.33
2018-06-14T04:08:25.449Z,2.57
2018-06-14T04:10:55.278Z,2.47
2018-06-14T04:13:25.058Z,2.63
2018-06-14T04:15:54.804Z,2.70
2018-06-14T04:18:24.589Z,2.60
2018-06-14T04:20:54.329Z,2.73
2018-06-14T04:23:24.138Z,2.43
2018-06-14T04:25:53.897Z,2.37
2018-06-14T04:28:23.985Z,2.70
2018-06-14T04:30:53.761Z,2.60
2018-06-14T04:33:23.569Z,2.63
2018-06-14T04:35:53.353Z,2.73
2018-06-14T04:38:23.108Z,2.67
2018-06-14T04:40:53.149Z,3.10
2018-06-14T04:43:22.929Z,3.20
2018-06-14T04:45:52.692Z,2.63
2018-06-14T04:48:22.605Z,3.00
2018-06-14T04:50:52.416Z,3.10
2018-06-14T04:53:22.296Z,3.23
2018-06-14T04:55:52.167Z,3.07
2018-06-14T04:58:21.989Z,3.00
2018-06-14T05:00:51.816Z,3.57
2018-06-14T05:03:22.016Z,3.03
2018-06-14T05:05:51.883Z,3.07
2018-06-14T05:08:24.691Z,2.97
2018-06-14T05:10:55.859Z,3.57
2018-06-14T05:13:26.059Z,3.43
2018-06-14T05:15:56.456Z,3.37
2018-06-14T05:18:26.266Z,3.03
2018-06-14T05:20:56.145Z,3.40
2018-06-14T05:23:25.927Z,3.40
2018-06-14T05:25:55.721Z,3.07
2018-06-14T05:28:25.485Z,3.03
2018-06-14T05:30:55.363Z,2.90
2018-06-14T05:33:25.126Z,2.80
2018-06-14T05:35:54.912Z,3.40
2018-06-14T05:38:24.814Z,3.50
2018-06-14T05:40:54.582Z,3.77
2018-06-14T05:43:24.451Z,3.00
2018-06-14T05:45:54.369Z,3.50
2018-06-14T05:48:24.229Z,3.83
2018-06-14T05:50:54.006Z,3.43
2018-06-14T05:53:23.800Z,2.93
2018-06-14T05:55:53.580Z,3.23
2018-06-14T05:58:23.313Z,4.10
2018-06-14T06:00:53.127Z,3.80
2018-06-14T06:03:22.919Z,3.60
2018-06-14T06:05:52.703Z,3.20
2018-06-14T06:08:22.494Z,3.80
2018-06-14T06:10:52.310Z,2.90
2018-06-14T06:13:22.166Z,3.50
2018-06-14T06:15:51.936Z,3.13
2018-06-14T06:18:21.721Z,3.20
2018-06-14T06:20:51.533Z,3.20
2018-06-14T06:23:21.406Z,4.00
2018-06-14T06:25:51.237Z,3.53
2018-06-14T06:28:21.114Z,3.03
2018-06-14T06:30:50.914Z,3.27
2018-06-14T06:33:20.742Z,3.47
2018-06-14T06:35:50.747Z,3.47
2018-06-14T06:38:20.689Z,3.17
2018-06-14T06:40:50.482Z,3.40
2018-06-14T06:43:20.356Z,3.47
2018-06-14T06:45:50.125Z,4.03
2018-06-14T06:48:20.213Z,3.97
2018-06-14T06:50:50.049Z,3.03
2018-06-14T06:53:19.835Z,3.60
2018-06-14T06:55:50.021Z,3.43
2018-06-14T06:58:19.854Z,3.80
2018-06-14T07:00:49.693Z,3.60
2018-06-14T07:03:19.453Z,3.83
2018-06-14T07:05:49.265Z,3.27
2018-06-14T07:08:19.413Z,3.93
2018-06-14T07:10:49.245Z,4.17
2018-06-14T07:13:19.013Z,3.33
2018-06-14T07:15:48.761Z,3.33
2018-06-14T07:18:18.553Z,3.20
2018-06-14T07:20:48.618Z,3.60
2018-06-14T07:23:18.440Z,3.20
2018-06-14T07:25:48.209Z,3.27
2018-06-14T07:28:18.492Z,3.30
2018-06-14T07:30:48.243Z,3.70
2018-06-14T07:33:18.197Z,3.60
2018-06-14T07:35:48.149Z,3.77
2018-06-14T07:38:17.908Z,3.33
2018-06-14T07:40:47.734Z,3.30
2018-06-14T07:43:17.495Z,3.20
2018-06-14T07:45:47.306Z,3.63
2018-06-14T07:48:17.087Z,3.40
2018-06-14T07:50:46.889Z,3.00
2018-06-14T07:53:16.761Z,3.43
2018-06-14T07:55:46.580Z,3.27
2018-06-14T07:58:16.461Z,2.67
2018-06-14T08:00:47.312Z,2.53
2018-06-14T08:03:17.151Z,3.03
2018-06-14T08:05:47.034Z,3.00
2018-06-14T08:08:16.826Z,3.10
2018-06-14T08:10:46.702Z,2.10
2018-06-14T08:13:16.517Z,2.83
2018-06-14T08:15:46.437Z,3.00
2018-06-14T08:18:16.271Z,3.10
2018-06-14T08:20:46.139Z,3.10
2018-06-14T08:23:15.983Z,3.13
2018-06-14T08:25:45.804Z,2.57
2018-06-14T08:28:15.666Z,2.77
2018-06-14T08:30:45.829Z,2.70
2018-06-14T08:33:15.681Z,2.93
2018-06-14T08:35:45.513Z,2.40
2018-06-14T08:38:15.353Z,2.50
2018-06-14T08:40:45.181Z,2.63
2018-06-14T08:43:15.002Z,2.37
2018-06-14T08:45:44.900Z,2.53
2018-06-14T08:48:14.750Z,2.73
2018-06-14T08:50:44.631Z,2.70
2018-06-14T08:53:14.444Z,2.80
2018-06-14T08:55:44.286Z,2.57
2018-06-14T08:58:14.109Z,3.40
2018-06-14T09:00:43.953Z,2.80
2018-06-14T09:03:13.766Z,2.77
2018-06-14T09:05:43.578Z,2.70
2018-06-14T09:08:13.829Z,3.27
2018-06-14T09:10:43.644Z,2.73
2018-06-14T09:13:13.507Z,3.10
2018-06-14T09:15:43.312Z,3.20
2018-06-14T09:18:13.320Z,2.87
2018-06-14T09:20:43.130Z,2.77
2018-06-14T09:23:12.932Z,2.90
2018-06-14T09:25:43.203Z,2.97
2018-06-14T09:28:13.024Z,2.73
2018-06-14T09:30:42.875Z,3.17
2018-06-14T09:33:12.805Z,2.97
2018-06-14T09:35:42.671Z,3.10
2018-06-14T09:38:13.049Z,3.33
2018-06-14T09:40:43.032Z,3.67
2018-06-14T09:43:13.183Z,3.40
2018-06-14T09:45:43.062Z,3.10
2018-06-14T09:48:12.911Z,3.20
2018-06-14T09:50:42.765Z,3.30
2018-06-14T09:53:12.598Z,3.67
2018-06-14T09:55:42.469Z,3.50
2018-06-14T09:58:12.269Z,3.17
2018-06-14T10:00:42.510Z,3.80
2018-06-14T10:03:12.698Z,3.30
2018-06-14T10:05:42.562Z,3.27
2018-06-14T10:08:12.736Z,2.90
2018-06-14T10:10:42.598Z,3.73
2018-06-14T10:13:12.417Z,3.10
2018-06-14T10:15:42.263Z,2.40
2018-06-14T10:18:12.095Z,3.03
2018-06-14T10:20:42.333Z,3.80
2018-06-14T10:23:12.118Z,3.50
2018-06-14T10:25:41.951Z,3.47
2018-06-14T10:28:11.747Z,3.47
2018-06-14T10:30:41.765Z,2.80
2018-06-14T10:33:11.618Z,3.37
2018-06-14T10:35:41.474Z,3.17
2018-06-14T10:38:11.293Z,3.00
2018-06-14T10:40:41.101Z,3.27
2018-06-14T10:43:11.002Z,3.80
2018-06-14T10:45:40.849Z,2.80
2018-06-14T10:48:10.649Z,2.90
2018-06-14T10:50:40.450Z,2.37
2018-06-14T10:53:10.499Z,2.13
2018-06-14T10:55:40.313Z,2.10
2018-06-14T10:58:10.130Z,2.67
2018-06-14T11:00:39.979Z,2.40
2018-06-14T11:03:09.841Z,2.40
2018-06-14T11:05:39.733Z,2.20
2018-06-14T11:08:09.538Z,2.10
2018-06-14T11:10:39.342Z,2.20
2018-06-14T11:13:09.125Z,2.30
2018-06-14T11:15:38.894Z,2.40
2018-06-14T11:18:08.736Z,2.27
2018-06-14T11:20:38.599Z,1.90
2018-06-14T11:23:08.495Z,2.67
2018-06-14T11:25:38.309Z,2.77
2018-06-14T11:28:08.144Z,2.17
2018-06-14T11:30:38.317Z,2.00
2018-06-14T11:33:08.916Z,1.90
2018-06-14T11:35:38.725Z,2.40
2018-06-14T11:38:08.892Z,2.17
2018-06-14T11:40:38.790Z,2.17
2018-06-14T11:43:08.673Z,2.47
2018-06-14T11:45:38.480Z,2.10
2018-06-14T11:48:08.519Z,2.47
2018-06-14T11:50:38.349Z,2.80
2018-06-14T11:53:08.153Z,2.30
2018-06-14T11:55:38.006Z,2.43
2018-06-14T11:58:07.819Z,3.20
2018-06-14T12:00:37.712Z,2.23
2018-06-14T12:03:07.697Z,2.60
2018-06-14T12:05:37.621Z,2.17
2018-06-14T12:08:07.409Z,2.03
2018-06-14T12:10:37.240Z,2.00
2018-06-14T12:13:07.122Z,2.17
2018-06-14T12:15:36.934Z,2.33
2018-06-14T12:18:06.754Z,2.23
2018-06-14T12:20:36.840Z,2.03
2018-06-14T12:23:06.729Z,2.23
2018-06-14T12:25:36.538Z,2.27
2018-06-14T12:28:06.422Z,2.20
2018-06-14T12:30:36.193Z,1.97
2018-06-14T12:33:06.022Z,1.70
2018-06-14T12:35:35.883Z,1.93
2018-06-14T12:38:05.800Z,2.30
2018-06-14T12:40:35.634Z,2.07
2018-06-14T12:43:05.469Z,2.57
2018-06-14T12:45:35.317Z,2.20
2018-06-14T12:48:05.530Z,2.20
2018-06-14T12:50:35.423Z,2.17
2018-06-14T12:53:05.274Z,2.33
2018-06-14T12:55:35.087Z,2.50
2018-06-14T12:58:04.980Z,2.00
2018-06-14T13:00:35.176Z,2.20
2018-06-14T13:03:05.061Z,2.30
2018-06-14T13:05:34.863Z,2.07
2018-06-14T13:08:04.709Z,2.20
2018-06-14T13:10:34.522Z,6.37
2018-06-14T13:13:04.325Z,5.10
2018-06-14T13:15:34.137Z,5.17
2018-06-14T13:18:15.509Z,3.67
2018-06-14T13:20:56.805Z,3.23
2018-06-14T13:23:26.679Z,3.40
2018-06-14T13:25:56.498Z,3.83
2018-06-14T13:28:40.327Z,2.67
2018-06-14T13:31:10.951Z,2.87
2018-06-14T13:33:40.828Z,2.50
2018-06-14T13:36:10.784Z,2.30
2018-06-14T13:38:40.625Z,2.67
2018-06-14T13:41:10.418Z,2.53
2018-06-14T13:43:40.218Z,2.47
2018-06-14T13:46:10.092Z,2.23
2018-06-14T13:48:39.973Z,2.30
2018-06-14T13:51:09.951Z,2.17
2018-06-14T13:53:39.791Z,2.33
2018-06-14T13:56:09.692Z,2.40
2018-06-14T13:58:39.538Z,2.03
2018-06-14T14:01:11.290Z,2.03
2018-06-14T14:03:41.242Z,2.30
2018-06-14T14:06:11.114Z,2.00
2018-06-14T14:08:41.007Z,2.13
2018-06-14T14:11:10.825Z,2.03
2018-06-14T14:13:41.037Z,1.60
2018-06-14T14:16:10.878Z,1.70
2018-06-14T14:18:40.797Z,2.23
2018-06-14T14:21:10.652Z,1.97
2018-06-14T14:23:40.558Z,1.90
2018-06-14T14:26:10.410Z,2.27
2018-06-14T14:28:40.290Z,1.83
2018-06-14T14:31:10.097Z,2.10
2018-06-14T14:33:39.895Z,2.40
2018-06-14T14:36:10.826Z,2.27
2018-06-14T14:38:41.034Z,2.20
2018-06-14T14:41:10.925Z,1.83
2018-06-14T14:43:40.756Z,1.60
2018-06-14T14:46:10.765Z,1.90
2018-06-14T14:48:40.666Z,2.10
2018-06-14T14:51:10.605Z,1.90
2018-06-14T14:53:41.145Z,1.97
2018-06-14T14:56:10.997Z,2.20
2018-06-14T14:58:40.931Z,1.87
2018-06-14T15:01:11.058Z,2.00
2018-06-14T15:03:40.938Z,2.00
2018-06-14T15:06:10.825Z,1.60
2018-06-14T15:08:40.707Z,2.10
2018-06-14T15:11:10.731Z,2.27
2018-06-14T15:13:44.029Z,1.87
2018-06-14T15:16:13.903Z,1.87
2018-06-14T15:18:43.693Z,1.70
2018-06-14T15:21:13.537Z,2.07
2018-06-14T15:23:43.398Z,1.70
2018-06-14T15:26:13.225Z,2.17
2018-06-14T15:28:43.062Z,1.87
2018-06-14T15:31:12.832Z,1.83
2018-06-14T15:33:42.701Z,2.10
2018-06-14T15:36:12.514Z,2.10
2018-06-14T15:38:42.431Z,1.93
2018-06-14T15:41:12.325Z,1.97
2018-06-14T15:43:42.274Z,1.80
2018-06-14T15:46:12.149Z,2.00
2018-06-14T15:48:42.332Z,1.80
2018-06-14T15:51:12.133Z,1.70
2018-06-14T15:53:41.946Z,1.87
2018-06-14T15:56:27.292Z,1.80
2018-06-14T15:58:57.122Z,1.77
2018-06-14T16:01:26.950Z,1.57
2018-06-14T16:03:56.917Z,1.70
2018-06-14T16:06:26.738Z,1.90
2018-06-14T16:08:56.551Z,1.80
2018-06-14T16:11:26.381Z,1.80
2018-06-14T16:13:56.260Z,1.37
2018-06-14T16:16:26.539Z,1.60
2018-06-14T16:18:56.382Z,1.70
2018-06-14T16:21:26.205Z,1.57
2018-06-14T16:23:55.997Z,1.53
2018-06-14T16:26:25.853Z,1.40
2018-06-14T16:28:55.691Z,1.40
2018-06-14T16:31:25.534Z,2.00
2018-06-14T16:33:54.229Z,1.50
2018-06-14T16:36:24.046Z,1.40
2018-06-14T16:38:53.911Z,1.67
2018-06-14T16:41:23.729Z,1.50
2018-06-14T16:43:53.600Z,1.20
2018-06-14T16:46:23.420Z,1.40
2018-06-14T16:48:53.483Z,1.40
2018-06-14T16:51:23.332Z,1.50
2018-06-14T16:53:53.133Z,1.60
2018-06-14T16:56:23.022Z,1.20
2018-06-14T16:58:52.962Z,1.40
2018-06-14T17:01:22.854Z,1.50
2018-06-14T17:03:52.849Z,1.63
2018-06-14T17:06:22.696Z,1.50
2018-06-14T17:08:52.733Z,1.43
2018-06-14T17:11:22.610Z,1.30
2018-06-14T17:13:52.469Z,1.30
2018-06-14T17:16:22.413Z,1.70
2018-06-14T17:18:52.301Z,1.60
2018-06-14T17:21:22.202Z,1.40
2018-06-14T17:23:52.062Z,1.67
2018-06-14T17:26:21.888Z,1.43
2018-06-14T17:28:52.539Z,1.37
2018-06-14T17:31:22.330Z,1.53
2018-06-14T17:33:52.233Z,1.77
2018-06-14T17:36:22.130Z,1.43
2018-06-14T17:38:51.939Z,1.67
2018-06-14T17:41:21.861Z,1.43
2018-06-14T17:43:51.833Z,1.33
2018-06-14T17:46:21.747Z,1.40
2018-06-14T17:48:51.626Z,1.70
2018-06-14T17:51:21.933Z,1.77
2018-06-14T17:53:51.763Z,1.70
2018-06-14T17:56:21.689Z,1.67
2018-06-14T17:58:51.618Z,1.90
2018-06-14T18:01:21.929Z,1.60
2018-06-14T18:03:51.767Z,1.70
2018-06-14T18:06:21.693Z,1.47
2018-06-14T18:08:51.541Z,1.70
2018-06-14T18:11:21.789Z,1.70
2018-06-14T18:13:51.637Z,1.63
2018-06-14T18:16:21.506Z,1.40
2018-06-14T18:18:51.691Z,1.73
2018-06-14T18:21:21.550Z,1.77
2018-06-14T18:23:51.380Z,1.77
2018-06-14T18:26:21.319Z,1.63
2018-06-14T18:28:51.700Z,1.83
2018-06-14T18:31:21.626Z,1.83
2018-06-14T18:33:51.905Z,1.80
2018-06-14T18:36:21.815Z,2.17
2018-06-14T18:38:51.706Z,2.27
2018-06-14T18:41:21.650Z,2.27
2018-06-14T18:43:51.564Z,2.07
2018-06-14T18:46:21.530Z,1.60
2018-06-14T18:48:51.484Z,1.80
2018-06-14T18:51:21.354Z,1.73
2018-06-14T18:53:51.290Z,1.73
2018-06-14T18:56:21.187Z,1.83
2018-06-14T18:58:51.084Z,1.60
2018-06-14T19:01:21.115Z,2.03
2018-06-14T19:03:51.027Z,2.40
2018-06-14T19:06:21.058Z,2.20
2018-06-14T19:08:51.013Z,2.50
2018-06-14T19:11:20.883Z,2.37
2018-06-14T19:13:50.834Z,2.80
2018-06-14T19:16:21.210Z,2.80
2018-06-14T19:18:51.143Z,2.47
2018-06-14T19:21:21.117Z,2.20
2018-06-14T19:23:51.002Z,2.10
2018-06-14T19:26:20.978Z,2.33
2018-06-14T19:28:51.562Z,1.67
2018-06-14T19:31:21.474Z,2.00
2018-06-14T19:33:51.346Z,2.20
2018-06-14T19:36:21.291Z,2.33
2018-06-14T19:38:51.129Z,2.20
2018-06-14T19:41:21.076Z,2.10
2018-06-14T19:43:50.992Z,2.33
2018-06-14T19:46:20.871Z,2.10
2018-06-14T19:48:50.988Z,2.40
2018-06-14T19:51:21.272Z,2.67
2018-06-14T19:53:51.099Z,2.37
2018-06-14T19:56:20.887Z,2.40
2018-06-14T19:58:50.713Z,2.07
2018-06-14T20:01:20.502Z,1.57
2018-06-14T20:03:50.341Z,1.70
2018-06-14T20:06:20.099Z,2.07
2018-06-14T20:08:49.845Z,1.83
2018-06-14T20:11:19.979Z,1.77
2018-06-14T20:13:50.073Z,1.90
2018-06-14T20:16:19.896Z,2.40
2018-06-14T20:18:49.669Z,2.47
2018-06-14T20:21:19.530Z,1.93
2018-06-14T20:23:49.324Z,2.23
2018-06-14T20:26:19.259Z,2.00
2018-06-14T20:28:49.054Z,2.20
2018-06-14T20:31:18.885Z,1.90
2018-06-14T20:33:48.710Z,2.00
2018-06-14T20:36:18.472Z,1.97
2018-06-14T20:38:48.269Z,2.13
2018-06-14T20:41:18.101Z,2.20
2018-06-14T20:43:47.870Z,1.90
2018-06-14T20:46:17.918Z,1.90
2018-06-14T20:48:47.699Z,2.10
2018-06-14T20:51:17.557Z,2.50
2018-06-14T20:53:47.321Z,2.10
2018-06-14T20:56:17.116Z,2.60
2018-06-14T20:58:46.879Z,2.43
2018-06-14T21:01:16.948Z,2.10
2018-06-14T21:03:46.822Z,2.10
2018-06-14T21:06:16.581Z,2.57
2018-06-14T21:08:46.369Z,2.90
2018-06-14T21:11:16.150Z,2.60
2018-06-14T21:13:45.923Z,2.67
2018-06-14T21:16:15.690Z,3.03
2018-06-14T21:18:45.437Z,2.60
2018-06-14T21:21:15.201Z,2.80
2018-06-14T21:23:44.965Z,2.73
2018-06-14T21:26:14.776Z,3.13
2018-06-14T21:28:44.567Z,2.97
2018-06-14T21:31:14.353Z,3.20
2018-06-14T21:33:44.132Z,3.73
2018-06-14T21:36:13.894Z,3.17
2018-06-14T21:38:43.633Z,3.10
2018-06-14T21:41:13.413Z,3.20
2018-06-14T21:43:43.146Z,3.20
2018-06-14T21:46:12.970Z,3.37
2018-06-14T21:48:42.715Z,2.87
2018-06-14T21:51:12.448Z,3.60
2018-06-14T21:53:42.229Z,3.13
2018-06-14T21:56:11.952Z,3.27
2018-06-14T21:58:41.715Z,4.10
2018-06-14T22:01:13.348Z,3.10
2018-06-14T22:03:47.998Z,3.43
2018-06-14T22:06:17.960Z,3.67
2018-06-14T22:08:47.772Z,3.60
2018-06-14T22:11:17.730Z,3.40
2018-06-14T22:13:47.550Z,3.70
2018-06-14T22:16:17.305Z,3.43
2018-06-14T22:18:47.069Z,3.97
2018-06-14T22:21:16.861Z,3.30
2018-06-14T22:23:46.712Z,3.97
2018-06-14T22:26:16.571Z,3.80
2018-06-14T22:28:46.308Z,3.60
2018-06-14T22:31:16.081Z,4.20
2018-06-14T22:33:56.445Z,3.47
2018-06-14T22:36:26.249Z,3.80
2018-06-14T22:38:56.064Z,3.70
2018-06-14T22:41:25.857Z,3.93
2018-06-14T22:43:55.670Z,4.43
2018-06-14T22:46:25.445Z,3.97
2018-06-14T22:48:55.233Z,4.70
2018-06-14T22:51:26.680Z,4.47
2018-06-14T22:53:56.481Z,4.80
2018-06-14T22:56:26.262Z,4.30
2018-06-14T22:58:55.988Z,4.10
2018-06-14T23:01:41.689Z,4.13
2018-06-14T23:04:12.625Z,4.53
2018-06-14T23:06:42.452Z,4.50
2018-06-14T23:10:26.257Z,4.07
2018-06-14T23:12:56.057Z,3.97
2018-06-14T23:15:25.819Z,4.30
2018-06-14T23:17:55.733Z,4.47
2018-06-14T23:20:26.674Z,4.57
2018-06-14T23:22:57.288Z,4.57
2018-06-14T23:25:28.116Z,4.57
2018-06-14T23:27:57.873Z,5.00
2018-06-14T23:30:27.650Z,4.93
2018-06-14T23:32:57.443Z,5.53
2018-06-14T23:35:27.201Z,4.50
2018-06-14T23:37:56.937Z,5.03
2018-06-14T23:40:26.734Z,4.97
2018-06-14T23:42:56.826Z,4.03
2018-06-14T23:45:26.628Z,4.50
2018-06-14T23:47:56.361Z,4.53
2018-06-14T23:50:26.098Z,5.20
2018-06-14T23:52:56.174Z,5.93
2018-06-14T23:55:25.905Z,5.07
2018-06-14T23:57:55.645Z,6.00
